createdAt,value
2022-11-15T00:01:46.286Z,102.67
2022-11-15T00:05:49.940Z,104.03
2022-11-15T00:09:54.886Z,109.43
2022-11-15T00:13:58.476Z,104.57
2022-11-15T00:18:02.019Z,107.47
2022-11-15T00:22:05.511Z,108.17
2022-11-15T00:26:14.958Z,98.10
2022-11-15T00:30:18.673Z,97.33
2022-11-15T00:34:22.197Z,97.70
2022-11-15T00:38:25.694Z,103.77
2022-11-15T00:42:30.618Z,92.90
2022-11-15T00:46:34.036Z,92.33
2022-11-15T00:50:37.510Z,103.43
2022-11-15T00:54:40.961Z,98.40
2022-11-15T00:58:45.844Z,107.70
2022-11-15T01:02:49.132Z,113.47
2022-11-15T01:06:52.752Z,88.70
2022-11-15T01:10:56.229Z,103.97
2022-11-15T01:15:01.025Z,109.37
2022-11-15T01:19:04.831Z,116.13
2022-11-15T01:23:09.422Z,100.70
2022-11-15T01:27:12.947Z,105.73
2022-11-15T01:31:19.678Z,107.27
2022-11-15T01:35:23.027Z,110.90
2022-11-15T01:39:26.427Z,114.67
2022-11-15T01:43:31.938Z,109.50
2022-11-15T01:47:40.919Z,119.63
2022-11-15T01:51:44.231Z,126.70
2022-11-15T01:55:47.694Z,104.90
2022-11-15T01:59:50.974Z,128.47
2022-11-15T02:04:01.150Z,117.07
2022-11-15T02:08:04.582Z,106.20
2022-11-15T02:12:10.226Z,100.37
2022-11-15T02:16:20.685Z,120.90
2022-11-15T02:20:59.235Z,102.30
2022-11-15T02:25:30.649Z,113.70
2022-11-15T02:29:50.095Z,104.20
2022-11-15T02:34:02.277Z,116.83
2022-11-15T02:38:12.472Z,108.27
2022-11-15T02:42:39.251Z,111.30
2022-11-15T02:47:05.157Z,105.67
2022-11-15T02:51:10.561Z,94.57
2022-11-15T02:55:29.514Z,111.43
2022-11-15T02:59:58.752Z,96.67
2022-11-15T03:04:19.785Z,110.13
2022-11-15T03:08:31.482Z,115.93
2022-11-15T03:12:43.065Z,113.87
2022-11-15T03:16:51.510Z,106.03
2022-11-15T03:20:55.644Z,94.87
2022-11-15T03:25:06.402Z,107.47
2022-11-15T03:29:15.726Z,105.03
2022-11-15T03:33:20.791Z,87.63
2022-11-15T03:37:29.747Z,85.97
2022-11-15T03:41:48.620Z,104.40
2022-11-15T03:45:56.059Z,84.80
2022-11-15T03:50:03.592Z,106.33
2022-11-15T03:54:07.270Z,90.70
2022-11-15T03:58:12.265Z,86.73
2022-11-15T04:02:16.131Z,85.80
2022-11-15T04:06:19.479Z,83.53
2022-11-15T04:10:22.768Z,94.23
2022-11-15T04:14:27.464Z,131.10
2022-11-15T04:18:30.749Z,104.40
2022-11-15T04:22:51.402Z,77.00
2022-11-15T04:26:54.694Z,96.87
2022-11-15T04:30:59.479Z,94.87
2022-11-15T04:35:02.839Z,118.20
2022-11-15T04:39:06.185Z,102.90
2022-11-15T04:43:09.457Z,95.43
2022-11-15T04:47:14.785Z,100.77
2022-11-15T04:51:18.109Z,103.57
2022-11-15T04:55:22.032Z,94.60
2022-11-15T04:59:25.273Z,90.23
2022-11-15T05:03:47.419Z,103.07
2022-11-15T05:07:50.678Z,85.03
2022-11-15T05:11:54.007Z,105.13
2022-11-15T05:15:57.275Z,103.17
2022-11-15T05:20:01.985Z,107.00
2022-11-15T05:24:06.096Z,118.10
2022-11-15T05:28:09.537Z,137.73
2022-11-15T05:32:14.899Z,104.80
2022-11-15T05:36:23.793Z,88.27
2022-11-15T05:40:27.568Z,94.70
2022-11-15T05:44:31.045Z,122.37
2022-11-15T05:48:36.153Z,98.83
2022-11-15T05:52:40.994Z,88.20
2022-11-15T05:56:44.869Z,101.90
2022-11-15T06:00:48.282Z,126.87
2022-11-15T06:04:51.589Z,108.73
2022-11-15T06:08:56.396Z,83.67
2022-11-15T06:13:00.329Z,115.83
2022-11-15T06:17:08.582Z,96.23
2022-11-15T06:21:14.492Z,107.60
2022-11-15T06:25:19.304Z,123.77
2022-11-15T06:29:22.765Z,126.80
2022-11-15T06:33:26.299Z,121.53
2022-11-15T06:37:29.612Z,162.83
2022-11-15T06:41:36.882Z,126.80
2022-11-15T06:45:40.667Z,115.33
2022-11-15T06:49:44.206Z,104.43
2022-11-15T06:53:48.558Z,106.00
2022-11-15T06:57:54.735Z,117.43
2022-11-15T07:01:57.990Z,101.83
2022-11-15T07:06:06.760Z,106.83
2022-11-15T07:10:11.372Z,100.00
2022-11-15T07:14:16.040Z,111.73
2022-11-15T07:18:19.301Z,112.10
2022-11-15T07:22:22.629Z,112.30
2022-11-15T07:26:25.908Z,130.37
2022-11-15T07:30:31.548Z,95.83
2022-11-15T07:34:34.786Z,144.43
2022-11-15T07:38:42.589Z,134.93
2022-11-15T07:42:55.141Z,122.57
2022-11-15T07:46:59.955Z,110.77
2022-11-15T07:51:03.388Z,129.07
2022-11-15T07:55:07.791Z,101.27
2022-11-15T07:59:11.103Z,113.37
2022-11-15T08:03:17.843Z,100.10
2022-11-15T08:07:21.193Z,110.57
2022-11-15T08:11:24.492Z,100.13
2022-11-15T08:15:28.560Z,85.07
2022-11-15T08:19:33.225Z,77.07
2022-11-15T08:23:36.522Z,91.23
2022-11-15T08:27:39.895Z,89.27
2022-11-15T08:31:43.259Z,78.67
2022-11-15T08:36:20.109Z,92.37
2022-11-15T08:40:24.078Z,75.57
2022-11-15T08:44:27.617Z,71.97
2022-11-15T08:48:32.914Z,70.63
2022-11-15T08:52:38.046Z,67.40
2022-11-15T08:56:41.323Z,57.53
2022-11-15T09:00:44.681Z,56.17
2022-11-15T09:04:48.043Z,65.37
2022-11-15T09:08:52.849Z,62.57
2022-11-15T09:12:56.394Z,55.07
2022-11-15T09:17:00.483Z,63.83
2022-11-15T09:21:04.740Z,49.13
2022-11-15T09:25:11.391Z,40.70
2022-11-15T09:29:14.900Z,43.20
2022-11-15T09:33:18.218Z,46.87
2022-11-15T09:37:21.963Z,77.40
2022-11-15T09:41:53.866Z,74.50
2022-11-15T09:46:09.510Z,69.57
2022-11-15T09:50:14.774Z,79.27
2022-11-15T09:59:00.876Z,73.97
2022-11-15T10:03:14.452Z,86.33
2022-11-15T10:07:20.920Z,79.00
2022-11-15T10:11:42.493Z,81.13
2022-11-15T10:15:49.532Z,80.07
2022-11-15T10:20:06.177Z,99.57
2022-11-15T10:24:14.195Z,94.27
2022-11-15T10:28:19.862Z,78.67
2022-11-15T10:32:24.867Z,99.60
2022-11-15T10:36:29.822Z,91.73
2022-11-15T10:40:33.225Z,97.43
2022-11-15T10:44:46.646Z,95.53
2022-11-15T10:48:51.356Z,83.67
2022-11-15T10:52:55.015Z,83.10
2022-11-15T10:57:00.694Z,80.93
2022-11-15T11:01:18.915Z,78.13
2022-11-15T11:05:37.861Z,69.87
2022-11-15T11:09:44.498Z,70.93
2022-11-15T11:13:47.883Z,84.87
2022-11-15T11:18:03.521Z,74.03
2022-11-15T11:22:18.363Z,74.23
2022-11-15T11:26:37.930Z,77.77
2022-11-15T11:30:50.209Z,71.43
2022-11-15T11:35:03.303Z,75.60
2022-11-15T11:39:26.564Z,65.13
2022-11-15T11:43:39.591Z,61.57
2022-11-15T11:47:48.598Z,57.47
2022-11-15T11:51:57.156Z,73.33
2022-11-15T11:56:06.672Z,57.53
2022-11-15T12:00:19.839Z,61.43
2022-11-15T12:04:29.833Z,51.80
2022-11-15T12:08:42.968Z,69.23
2022-11-15T12:12:56.276Z,59.37
2022-11-15T12:17:00.838Z,60.43
2022-11-15T12:21:09.747Z,55.63
2022-11-15T12:25:20.867Z,63.87
2022-11-15T12:29:30.672Z,52.27
2022-11-15T12:33:40.797Z,61.37
2022-11-15T12:37:53.238Z,55.13
2022-11-15T12:42:26.162Z,60.17
2022-11-15T12:47:07.250Z,51.50
2022-11-15T12:51:10.537Z,46.83
2022-11-15T12:55:35.203Z,47.47
2022-11-15T12:59:52.797Z,41.00
2022-11-15T13:04:27.303Z,43.40
2022-11-15T13:08:49.585Z,53.13
2022-11-15T13:13:00.453Z,44.47
2022-11-15T13:17:04.648Z,41.10
2022-11-15T13:21:40.714Z,48.93
2022-11-15T13:25:58.157Z,46.40
2022-11-15T13:30:15.947Z,50.87
2022-11-15T13:39:01.469Z,50.33
2022-11-15T13:43:28.743Z,44.73
2022-11-15T13:47:32.996Z,56.03
2022-11-15T13:51:42.451Z,43.23
2022-11-15T13:55:47.282Z,45.60
2022-11-15T13:59:54.071Z,45.30
2022-11-15T14:04:00.184Z,45.57
2022-11-15T14:08:05.803Z,51.30
2022-11-15T14:12:32.102Z,53.07
2022-11-15T14:16:37.634Z,43.37
2022-11-15T14:20:41.845Z,40.00
2022-11-15T14:24:46.950Z,48.47
2022-11-15T14:28:51.964Z,53.27
2022-11-15T14:32:55.250Z,40.00
2022-11-15T14:36:58.554Z,42.53
2022-11-15T14:41:01.936Z,41.43
2022-11-15T14:45:14.286Z,40.23
2022-11-15T14:49:17.542Z,43.33
2022-11-15T14:53:21.798Z,37.57
2022-11-15T14:57:25.103Z,36.73
2022-11-15T15:01:29.983Z,43.70
2022-11-15T15:05:35.798Z,40.43
2022-11-15T15:09:39.148Z,43.90
2022-11-15T15:13:42.458Z,40.90
2022-11-15T15:17:47.147Z,51.57
2022-11-15T15:21:50.461Z,41.40
2022-11-15T15:25:54.264Z,43.10
2022-11-15T15:29:57.665Z,40.50
2022-11-15T15:34:02.364Z,41.73
2022-11-15T15:38:06.882Z,41.47
2022-11-15T15:42:10.124Z,38.00
2022-11-15T15:46:15.994Z,38.80
2022-11-15T15:50:24.834Z,38.30
2022-11-15T15:54:28.157Z,35.17
2022-11-15T15:58:35.631Z,43.40
2022-11-15T16:02:40.818Z,45.53
2022-11-15T16:06:56.119Z,43.90
2022-11-15T16:10:59.890Z,44.43
2022-11-15T16:15:04.424Z,46.47
2022-11-15T16:19:08.093Z,39.80
2022-11-15T16:23:24.281Z,43.83
2022-11-15T16:27:28.262Z,36.83
2022-11-15T16:31:31.647Z,39.33
2022-11-15T16:35:35.287Z,39.20
2022-11-15T16:39:40.286Z,43.30
2022-11-15T16:43:48.201Z,40.93
2022-11-15T16:47:52.624Z,38.97
2022-11-15T16:52:04.856Z,38.67
2022-11-15T16:56:21.918Z,36.77
2022-11-15T17:00:27.035Z,37.80
2022-11-15T17:04:34.035Z,40.90
2022-11-15T17:08:37.628Z,35.17
2022-11-15T17:12:42.982Z,38.63
2022-11-15T17:16:47.039Z,41.60
2022-11-15T17:20:52.935Z,37.00
2022-11-15T17:24:56.821Z,37.83
2022-11-15T17:29:02.689Z,40.27
2022-11-15T17:33:08.650Z,41.80
2022-11-15T17:37:14.334Z,38.13
2022-11-15T17:41:18.713Z,42.53
2022-11-15T17:45:24.691Z,36.30
2022-11-15T17:49:40.032Z,40.80
2022-11-15T17:53:49.379Z,41.30
2022-11-15T17:57:53.818Z,42.80
2022-11-15T18:01:59.486Z,40.23
2022-11-15T18:06:03.577Z,39.80
2022-11-15T18:10:08.006Z,36.10
2022-11-15T18:14:17.288Z,35.93
2022-11-15T18:18:23.575Z,39.47
2022-11-15T18:22:28.629Z,38.17
2022-11-15T18:26:36.764Z,39.30
2022-11-15T18:30:42.130Z,33.90
2022-11-15T18:34:47.388Z,41.50
2022-11-15T18:38:56.228Z,36.10
2022-11-15T18:43:00.173Z,46.60
2022-11-15T18:47:05.863Z,38.03
2022-11-15T18:51:18.497Z,36.80
2022-11-15T18:55:23.888Z,43.87
2022-11-15T18:59:33.022Z,41.57
2022-11-15T19:03:45.735Z,36.37
2022-11-15T19:07:52.277Z,35.00
2022-11-15T19:12:02.171Z,41.53
2022-11-15T19:16:14.319Z,47.57
2022-11-15T19:20:23.359Z,41.40
2022-11-15T19:24:37.678Z,48.40
2022-11-15T19:28:46.298Z,43.23
2022-11-15T19:32:55.195Z,45.07
2022-11-15T19:37:08.343Z,38.87
2022-11-15T19:41:18.921Z,43.27
2022-11-15T19:45:28.996Z,39.47
2022-11-15T19:49:37.105Z,38.53
2022-11-15T19:53:46.114Z,47.63
2022-11-15T19:57:53.086Z,41.60
2022-11-15T20:02:02.005Z,40.03
2022-11-15T20:06:15.041Z,40.50
2022-11-15T20:10:23.535Z,37.70
2022-11-15T20:14:36.739Z,36.63
2022-11-15T20:18:43.219Z,29.53
2022-11-15T20:22:53.990Z,34.43
2022-11-15T20:26:58.504Z,36.83
2022-11-15T20:31:04.664Z,37.07
2022-11-15T20:35:10.290Z,33.03
2022-11-15T20:39:14.366Z,39.23
2022-11-15T20:43:20.553Z,35.87
2022-11-15T20:47:29.264Z,37.60
2022-11-15T20:51:34.045Z,34.43
2022-11-15T20:55:42.318Z,34.23
2022-11-15T20:59:46.330Z,31.07
2022-11-15T21:03:51.318Z,31.20
2022-11-15T21:07:54.679Z,30.60
2022-11-15T21:12:12.321Z,34.80
2022-11-15T21:16:17.199Z,32.00
2022-11-15T21:20:22.236Z,37.43
2022-11-15T21:24:26.086Z,36.67
2022-11-15T21:28:29.522Z,32.40
2022-11-15T21:32:32.862Z,38.87
2022-11-15T21:36:37.635Z,30.47
2022-11-15T21:40:40.936Z,36.23
2022-11-15T21:44:44.247Z,40.87
2022-11-15T21:48:47.579Z,33.83
2022-11-15T21:52:52.237Z,33.43
2022-11-15T21:56:55.583Z,34.00
2022-11-15T22:01:17.031Z,37.10
2022-11-15T22:05:20.352Z,33.10
2022-11-15T22:09:25.054Z,33.63
2022-11-15T22:13:28.442Z,33.60
2022-11-15T22:17:45.590Z,31.10
2022-11-15T22:21:48.870Z,37.83
2022-11-15T22:25:54.042Z,34.27
2022-11-15T22:29:57.381Z,40.20
2022-11-15T22:34:00.693Z,33.40
2022-11-15T22:38:03.996Z,33.63
2022-11-15T22:42:08.738Z,30.10
2022-11-15T22:46:12.490Z,37.27
2022-11-15T22:50:15.896Z,37.30
2022-11-15T22:54:19.258Z,35.40
2022-11-15T22:58:25.483Z,33.20
2022-11-15T23:02:29.082Z,34.47
2022-11-15T23:06:32.437Z,36.43
2022-11-15T23:10:53.092Z,32.57
2022-11-15T23:14:57.769Z,32.20
2022-11-15T23:19:02.588Z,32.80
2022-11-15T23:23:05.885Z,34.80
2022-11-15T23:27:09.566Z,29.47
2022-11-15T23:31:31.692Z,28.80
2022-11-15T23:35:35.114Z,27.50
2022-11-15T23:39:38.508Z,32.80
2022-11-15T23:43:42.357Z,35.30
2022-11-15T23:47:47.103Z,34.47
2022-11-15T23:51:50.524Z,34.00
2022-11-15T23:55:59.125Z,31.40
